Time;durP1;ratioP1;P1;durP2;ratioP2;P2;SDS_P1;SDS_P2;PMS_P1;PMS_P2;Temp;Humidity;BMP_temperature;BMP_pressure;BME280_temperature;BME280_humidity;BME280_pressure;Samples;Min_cycle;Max_cycle;Signal;HPM_P1;HPM_P2
2022/03/01 00:01:41;;;;;;;18.07;6.70;;;;;;;;;;5039123;28;20033;-71
2022/03/01 00:04:06;;;;;;;29.80;8.60;;;;;;;;;;5036638;28;20057;-71
2022/03/01 00:06:32;;;;;;;17.53;5.70;;;;;;;;;;5039321;28;20242;-71
2022/03/01 00:08:57;;;;;;;13.93;4.53;;;;;;;;;;5038323;28;20137;-71
2022/03/01 00:11:23;;;;;;;16.27;6.17;;;;;;;;;;5039260;28;20227;-71
2022/03/01 00:13:48;;;;;;;18.87;6.20;;;;;;;;;;5032771;28;20025;-71
2022/03/01 00:16:14;;;;;;;19.37;6.67;;;;;;;;;;5039034;28;20596;-71
2022/03/01 00:18:39;;;;;;;24.13;6.30;;;;;;;;;;5038142;28;20028;-71
2022/03/01 00:21:04;;;;;;;18.33;7.10;;;;;;;;;;5039014;28;20524;-71
2022/03/01 00:23:29;;;;;;;17.83;6.23;;;;;;;;;;5038246;28;20086;-71
2022/03/01 00:25:55;;;;;;;23.77;7.20;;;;;;;;;;5040640;28;20112;-71
2022/03/01 00:28:20;;;;;;;20.93;7.70;;;;;;;;;;5038788;28;20039;-71
2022/03/01 00:30:45;;;;;;;18.30;5.93;;;;;;;;;;5036851;28;20246;-71
2022/03/01 00:33:10;;;;;;;19.23;6.87;;;;;;;;;;5038246;28;20501;-71
2022/03/01 00:35:36;;;;;;;16.83;6.40;;;;;;;;;;5039724;28;20025;-71
2022/03/01 00:38:01;;;;;;;19.93;5.97;;;;;;;;;;5037948;28;20160;-71
2022/03/01 00:40:26;;;;;;;20.20;6.97;;;;;;;;;;5038495;28;20071;-71
2022/03/01 00:42:51;;;;;;;21.53;7.20;;;;;;;;;;5038773;28;20162;-71
2022/03/01 00:45:17;;;;;;;20.17;6.63;;;;;;;;;;5039421;28;20075;-71
2022/03/01 00:47:42;;;;;;;23.70;7.67;;;;;;;;;;5039327;28;20163;-71
2022/03/01 00:50:07;;;;;;;18.00;5.40;;;;;;;;;;5037621;28;20063;-71
2022/03/01 00:52:33;;;;;;;21.27;7.10;;;;;;;;;;5039068;28;20032;-71
2022/03/01 00:54:58;;;;;;;18.27;6.23;;;;;;;;;;5037857;28;20059;-73
2022/03/01 00:57:23;;;;;;;19.27;6.17;;;;;;;;;;5039216;28;20020;-73
2022/03/01 00:59:48;;;;;;;20.90;7.17;;;;;;;;;;5037973;28;20123;-73
2022/03/01 01:02:14;;;;;;;14.23;5.83;;;;;;;;;;5038223;28;20410;-73
2022/03/01 01:04:39;;;;;;;17.27;5.67;;;;;;;;;;5035775;28;20523;-73
2022/03/01 01:07:04;;;;;;;20.00;5.20;;;;;;;;;;5038210;28;20104;-73
2022/03/01 01:09:29;;;;;;;16.93;6.27;;;;;;;;;;5037078;28;20028;-73
2022/03/01 01:11:55;;;;;;;16.77;5.43;;;;;;;;;;5037962;28;20480;-73
2022/03/01 01:14:20;;;;;;;18.17;6.37;;;;;;;;;;5038927;28;20505;-73
2022/03/01 01:16:45;;;;;;;19.73;6.70;;;;;;;;;;5037890;28;20017;-73
2022/03/01 01:19:10;;;;;;;19.10;6.07;;;;;;;;;;5038119;28;20017;-73
2022/03/01 01:24:20;;;;;;;20.77;6.07;;;;;;;;;;5038393;28;20098;-73
2022/03/01 01:26:45;;;;;;;15.47;5.70;;;;;;;;;;5038398;28;20029;-73
2022/03/01 01:29:10;;;;;;;18.93;5.73;;;;;;;;;;5036495;28;20025;-72
2022/03/01 01:31:35;;;;;;;17.57;5.83;;;;;;;;;;5037170;28;20040;-73
2022/03/01 01:34:01;;;;;;;16.70;5.77;;;;;;;;;;5037932;28;20013;-73
2022/03/01 01:36:26;;;;;;;19.33;5.40;;;;;;;;;;5038171;28;20025;-73
2022/03/01 01:38:54;;;;;;;20.43;6.50;;;;;;;;;;5037609;28;20048;-72
2022/03/01 01:41:20;;;;;;;21.27;5.93;;;;;;;;;;5036399;28;20060;-72
2022/03/01 01:43:45;;;;;;;17.73;6.17;;;;;;;;;;5036800;28;20082;-72
2022/03/01 01:46:10;;;;;;;21.63;7.43;;;;;;;;;;5035265;28;20039;-73
2022/03/01 01:48:35;;;;;;;21.73;6.93;;;;;;;;;;5040515;28;20178;-73
2022/03/01 01:51:00;;;;;;;14.30;5.07;;;;;;;;;;5037189;28;20695;-73
2022/03/01 01:53:26;;;;;;;17.93;5.67;;;;;;;;;;5037772;28;20048;-73
2022/03/01 01:55:51;;;;;;;19.83;6.17;;;;;;;;;;5037759;28;20033;-73
2022/03/01 01:58:17;;;;;;;19.33;6.43;;;;;;;;;;5038070;28;20414;-73
2022/03/01 02:00:43;;;;;;;19.67;6.30;;;;;;;;;;5040363;28;20045;-73
2022/03/01 02:03:09;;;;;;;15.93;5.70;;;;;;;;;;5034866;28;20403;-73
2022/03/01 02:05:34;;;;;;;21.10;7.07;;;;;;;;;;5038357;28;20513;-73
2022/03/01 02:07:59;;;;;;;21.37;6.30;;;;;;;;;;5035427;28;20315;-73
2022/03/01 02:10:24;;;;;;;16.53;6.00;;;;;;;;;;5035797;28;20048;-73
2022/03/01 02:12:50;;;;;;;19.90;6.43;;;;;;;;;;5040435;28;20044;-73
2022/03/01 02:15:15;;;;;;;18.43;6.03;;;;;;;;;;5041628;28;20396;-73
2022/03/01 02:17:41;;;;;;;18.07;6.03;;;;;;;;;;5041471;28;20596;-73
2022/03/01 02:20:16;;;;;;;17.77;6.30;;;;;;;;;;5036848;28;20623;-73
2022/03/01 02:22:41;;;;;;;18.77;5.90;;;;;;;;;;5038711;28;20024;-73
2022/03/01 02:25:07;;;;;;;20.37;6.43;;;;;;;;;;5041341;28;20032;-73
2022/03/01 02:27:32;;;;;;;19.97;6.27;;;;;;;;;;5040907;28;20028;-73
2022/03/01 02:29:57;;;;;;;26.73;6.30;;;;;;;;;;5037474;28;20045;-73
2022/03/01 02:32:23;;;;;;;17.73;6.07;;;;;;;;;;5037535;28;20029;-73
2022/03/01 02:34:48;;;;;;;17.60;7.00;;;;;;;;;;5039468;28;20031;-73
2022/03/01 02:37:13;;;;;;;19.37;6.33;;;;;;;;;;5041340;28;20032;-73
2022/03/01 02:39:39;;;;;;;18.63;5.93;;;;;;;;;;5038452;28;20029;-73
2022/03/01 02:42:04;;;;;;;17.40;6.57;;;;;;;;;;5041153;28;20029;-73
2022/03/01 02:44:29;;;;;;;25.57;7.33;;;;;;;;;;5036185;28;20470;-73
2022/03/01 02:46:55;;;;;;;22.63;7.03;;;;;;;;;;5038877;28;20480;-73
2022/03/01 02:49:23;;;;;;;19.73;8.07;;;;;;;;;;5039238;28;20090;-73
2022/03/01 02:51:48;;;;;;;18.87;6.97;;;;;;;;;;5040136;28;20148;-73
2022/03/01 02:54:13;;;;;;;19.17;6.83;;;;;;;;;;5038358;28;20663;-73
2022/03/01 02:56:39;;;;;;;22.53;7.30;;;;;;;;;;5042152;28;20033;-73
2022/03/01 02:59:04;;;;;;;21.90;7.03;;;;;;;;;;5039338;28;20083;-73
2022/03/01 03:01:30;;;;;;;18.97;6.77;;;;;;;;;;5040135;28;20611;-73
2022/03/01 03:03:55;;;;;;;22.93;7.63;;;;;;;;;;5039441;28;20056;-73
2022/03/01 03:06:21;;;;;;;17.80;6.70;;;;;;;;;;5040598;28;20025;-73
2022/03/01 03:08:46;;;;;;;21.93;6.87;;;;;;;;;;5040204;28;20021;-73
2022/03/01 03:11:12;;;;;;;19.23;6.63;;;;;;;;;;5040571;28;20075;-73
2022/03/01 03:13:37;;;;;;;30.20;7.87;;;;;;;;;;5039939;28;20106;-73
2022/03/01 03:16:03;;;;;;;22.10;7.00;;;;;;;;;;5040657;28;20086;-73
2022/03/01 03:18:29;;;;;;;23.67;7.37;;;;;;;;;;5039941;28;20029;-73
2022/03/01 03:20:54;;;;;;;20.90;7.27;;;;;;;;;;5039216;28;20797;-73
2022/03/01 03:23:19;;;;;;;20.87;7.33;;;;;;;;;;5037380;28;20109;-73
2022/03/01 03:25:44;;;;;;;21.37;6.40;;;;;;;;;;5040054;28;20120;-73
2022/03/01 03:28:10;;;;;;;22.87;7.70;;;;;;;;;;5037979;28;20033;-73
2022/03/01 03:30:35;;;;;;;23.87;7.87;;;;;;;;;;5040367;28;20241;-73
2022/03/01 03:33:00;;;;;;;21.13;7.73;;;;;;;;;;5040217;28;20021;-73
2022/03/01 03:35:26;;;;;;;24.03;8.67;;;;;;;;;;5040382;28;20025;-73
2022/03/01 03:37:51;;;;;;;19.13;7.07;;;;;;;;;;5039670;28;20103;-73
2022/03/01 03:40:16;;;;;;;17.33;7.37;;;;;;;;;;5039814;28;20029;-73
2022/03/01 03:42:44;;;;;;;22.83;7.57;;;;;;;;;;5039929;28;20464;-73
2022/03/01 03:45:09;;;;;;;23.00;7.90;;;;;;;;;;5039687;28;20582;-73
2022/03/01 03:47:35;;;;;;;18.87;7.03;;;;;;;;;;5040078;28;20310;-72
2022/03/01 03:50:00;;;;;;;17.83;7.10;;;;;;;;;;5039081;28;20513;-72
2022/03/01 03:52:25;;;;;;;20.03;7.57;;;;;;;;;;5039691;28;20166;-72
2022/03/01 03:54:51;;;;;;;21.57;8.10;;;;;;;;;;5043625;28;20024;-71
2022/03/01 03:57:16;;;;;;;21.37;7.50;;;;;;;;;;5040071;28;20063;-71
2022/03/01 03:59:42;;;;;;;22.43;8.13;;;;;;;;;;5040340;28;20097;-71
2022/03/01 04:02:07;;;;;;;19.20;6.50;;;;;;;;;;5041302;28;20053;-71
2022/03/01 04:04:33;;;;;;;19.40;6.10;;;;;;;;;;5032099;28;20447;-71
2022/03/01 04:06:58;;;;;;;21.70;8.27;;;;;;;;;;5041680;28;20033;-71
2022/03/01 04:09:24;;;;;;;21.87;6.80;;;;;;;;;;5031999;28;20021;-71
2022/03/01 04:11:49;;;;;;;18.37;6.60;;;;;;;;;;5037856;28;20041;-71
2022/03/01 04:14:14;;;;;;;22.90;6.47;;;;;;;;;;5037126;28;20110;-71
2022/03/01 04:16:42;;;;;;;19.27;6.77;;;;;;;;;;5037968;28;20021;-71
2022/03/01 04:19:07;;;;;;;20.03;7.53;;;;;;;;;;5037854;28;20044;-71
2022/03/01 04:21:33;;;;;;;17.33;6.93;;;;;;;;;;5036662;28;20265;-71
2022/03/01 04:23:58;;;;;;;19.73;7.83;;;;;;;;;;5037846;28;20063;-71
2022/03/01 04:26:23;;;;;;;22.13;6.77;;;;;;;;;;5037493;28;20029;-72
2022/03/01 04:28:48;;;;;;;23.57;7.43;;;;;;;;;;5038269;28;20465;-71
2022/03/01 04:31:14;;;;;;;21.40;8.23;;;;;;;;;;5039726;28;20025;-71
2022/03/01 04:33:39;;;;;;;18.87;6.60;;;;;;;;;;5040719;28;20021;-71
2022/03/01 04:36:06;;;;;;;25.20;7.93;;;;;;;;;;5039697;28;20033;-71
2022/03/01 04:38:32;;;;;;;23.97;7.47;;;;;;;;;;5038620;28;20037;-72
2022/03/01 04:40:58;;;;;;;17.37;6.37;;;;;;;;;;5037214;28;20052;-71
2022/03/01 04:43:23;;;;;;;20.87;7.00;;;;;;;;;;5038503;28;20302;-71
2022/03/01 04:45:48;;;;;;;16.83;6.37;;;;;;;;;;5039386;28;20424;-71
2022/03/01 04:48:14;;;;;;;22.40;7.70;;;;;;;;;;5040014;28;20028;-71
2022/03/01 04:50:39;;;;;;;21.63;6.70;;;;;;;;;;5040895;28;20029;-71
2022/03/01 04:53:04;;;;;;;20.20;7.27;;;;;;;;;;5036624;28;20028;-71
2022/03/01 04:55:29;;;;;;;22.57;7.23;;;;;;;;;;5037586;28;20040;-71
2022/03/01 04:57:55;;;;;;;17.37;6.77;;;;;;;;;;5038219;28;20028;-71
2022/03/01 05:00:21;;;;;;;20.33;7.43;;;;;;;;;;5037727;28;20055;-71
2022/03/01 05:02:47;;;;;;;18.17;6.73;;;;;;;;;;5038640;28;20130;-71
2022/03/01 05:05:12;;;;;;;20.13;7.83;;;;;;;;;;5039578;28;20021;-71
2022/03/01 05:07:39;;;;;;;22.90;7.37;;;;;;;;;;5037522;28;20790;-71
2022/03/01 05:10:05;;;;;;;19.43;6.43;;;;;;;;;;5036910;28;20074;-71
2022/03/01 05:12:30;;;;;;;18.73;7.13;;;;;;;;;;5039821;28;20599;-71
2022/03/01 05:14:55;;;;;;;30.43;8.83;;;;;;;;;;5036844;28;20108;-71
2022/03/01 05:17:20;;;;;;;20.67;7.30;;;;;;;;;;5036544;28;20028;-71
2022/03/01 05:19:46;;;;;;;22.77;7.63;;;;;;;;;;5039599;28;20063;-71
2022/03/01 05:22:11;;;;;;;24.77;8.27;;;;;;;;;;5036969;28;20606;-71
2022/03/01 05:24:36;;;;;;;24.60;7.30;;;;;;;;;;5035550;28;20151;-72
2022/03/01 05:27:01;;;;;;;17.70;7.10;;;;;;;;;;5038553;28;20025;-71
2022/03/01 05:29:27;;;;;;;20.90;7.17;;;;;;;;;;5037513;28;20082;-71
2022/03/01 05:31:52;;;;;;;21.83;7.63;;;;;;;;;;5038535;28;20032;-71
2022/03/01 05:34:17;;;;;;;18.83;6.83;;;;;;;;;;5037027;28;20020;-72
2022/03/01 05:36:42;;;;;;;22.77;7.63;;;;;;;;;;5038352;28;20017;-72
2022/03/01 05:39:08;;;;;;;24.27;7.77;;;;;;;;;;5039229;28;20163;-72
2022/03/01 05:41:33;;;;;;;21.87;6.93;;;;;;;;;;5040783;28;20029;-72
2022/03/01 05:43:58;;;;;;;28.90;8.57;;;;;;;;;;5039475;28;20150;-71
2022/03/01 05:46:23;;;;;;;25.50;7.80;;;;;;;;;;5040007;28;20132;-71
2022/03/01 05:48:49;;;;;;;24.10;7.60;;;;;;;;;;5043087;28;20615;-71
2022/03/01 05:51:15;;;;;;;24.73;7.87;;;;;;;;;;5048122;28;20021;-71
2022/03/01 05:53:41;;;;;;;18.83;6.67;;;;;;;;;;5043227;28;20028;-71
2022/03/01 05:56:06;;;;;;;21.67;7.43;;;;;;;;;;5045124;28;20059;-71
2022/03/01 05:58:31;;;;;;;23.77;7.10;;;;;;;;;;5049041;28;20258;-71
2022/03/01 06:00:56;;;;;;;23.57;8.60;;;;;;;;;;5047749;28;20642;-71
2022/03/01 06:03:22;;;;;;;20.47;7.03;;;;;;;;;;5040277;28;20063;-71
2022/03/01 06:05:47;;;;;;;22.60;7.50;;;;;;;;;;5044092;28;20033;-71
2022/03/01 06:08:12;;;;;;;20.30;6.83;;;;;;;;;;5042995;28;20086;-71
2022/03/01 06:10:37;;;;;;;25.20;7.03;;;;;;;;;;5042566;28;20043;-71
2022/03/01 06:13:03;;;;;;;25.03;7.47;;;;;;;;;;5040808;28;20036;-71
2022/03/01 06:15:28;;;;;;;23.73;8.33;;;;;;;;;;5044401;28;20271;-71
2022/03/01 06:17:53;;;;;;;23.03;7.47;;;;;;;;;;5043160;28;20221;-71
2022/03/01 06:20:18;;;;;;;19.10;7.03;;;;;;;;;;5042089;28;20079;-71
2022/03/01 06:22:44;;;;;;;27.47;8.97;;;;;;;;;;5044016;28;20251;-72
2022/03/01 06:25:10;;;;;;;20.50;7.10;;;;;;;;;;5041826;28;20588;-72
2022/03/01 06:27:35;;;;;;;22.07;7.80;;;;;;;;;;5042680;28;20400;-71
2022/03/01 06:30:01;;;;;;;18.47;7.13;;;;;;;;;;5038334;28;20040;-71
2022/03/01 06:32:26;;;;;;;20.60;7.43;;;;;;;;;;5042061;28;20172;-72
2022/03/01 06:34:51;;;;;;;23.87;7.80;;;;;;;;;;5039913;28;20512;-72
2022/03/01 06:37:16;;;;;;;18.93;7.10;;;;;;;;;;5042414;28;20421;-71
2022/03/01 06:39:42;;;;;;;23.17;7.23;;;;;;;;;;5040691;28;20029;-72
2022/03/01 06:42:08;;;;;;;18.37;6.70;;;;;;;;;;5034937;28;20033;-72
2022/03/01 06:44:33;;;;;;;33.97;8.53;;;;;;;;;;5041728;28;20105;-72
2022/03/01 06:46:59;;;;;;;18.90;7.47;;;;;;;;;;5041918;28;20021;-72
2022/03/01 06:49:24;;;;;;;22.77;7.23;;;;;;;;;;5039698;28;20060;-72
2022/03/01 06:51:49;;;;;;;16.57;6.07;;;;;;;;;;5040440;28;20037;-72
2022/03/01 06:54:14;;;;;;;22.07;6.90;;;;;;;;;;5039852;28;20533;-71
2022/03/01 06:56:40;;;;;;;19.93;7.27;;;;;;;;;;5041566;28;20021;-72
2022/03/01 06:59:05;;;;;;;21.33;6.97;;;;;;;;;;5043264;28;20111;-71
2022/03/01 07:01:30;;;;;;;20.73;6.83;;;;;;;;;;5044962;28;20029;-71
2022/03/01 07:03:55;;;;;;;31.63;6.83;;;;;;;;;;5043166;28;20049;-72
2022/03/01 07:06:21;;;;;;;22.17;7.97;;;;;;;;;;5043958;28;20040;-71
2022/03/01 07:08:46;;;;;;;22.63;7.47;;;;;;;;;;5035893;28;20503;-71
2022/03/01 07:11:11;;;;;;;18.73;6.57;;;;;;;;;;5041289;28;20017;-71
2022/03/01 07:13:37;;;;;;;22.67;7.57;;;;;;;;;;5037058;28;20025;-71
2022/03/01 07:16:05;;;;;;;20.53;7.07;;;;;;;;;;5041116;28;20055;-72
2022/03/01 07:18:30;;;;;;;19.20;6.77;;;;;;;;;;5037936;28;20033;-72
2022/03/01 07:20:55;;;;;;;18.63;7.50;;;;;;;;;;5040507;28;20021;-72
2022/03/01 07:23:20;;;;;;;21.00;6.67;;;;;;;;;;5044632;28;20025;-72
2022/03/01 07:25:46;;;;;;;19.70;7.40;;;;;;;;;;5043655;28;20060;-72
2022/03/01 07:28:11;;;;;;;18.17;5.93;;;;;;;;;;5044216;28;20029;-72
2022/03/01 07:30:36;;;;;;;20.13;7.03;;;;;;;;;;5044098;28;20101;-72
2022/03/01 07:33:01;;;;;;;16.27;6.33;;;;;;;;;;5041664;28;20035;-72
2022/03/01 07:35:27;;;;;;;18.13;6.27;;;;;;;;;;5039439;28;20021;-72
2022/03/01 07:37:53;;;;;;;18.80;6.90;;;;;;;;;;5042585;28;20272;-72
2022/03/01 07:40:19;;;;;;;19.43;7.10;;;;;;;;;;5038843;28;20462;-72
2022/03/01 07:42:44;;;;;;;24.03;7.90;;;;;;;;;;5044148;28;20155;-71
2022/03/01 07:45:10;;;;;;;18.23;6.53;;;;;;;;;;5044835;28;20036;-72
2022/03/01 07:47:35;;;;;;;17.77;6.03;;;;;;;;;;5045740;28;20052;-71
2022/03/01 07:50:01;;;;;;;22.60;7.07;;;;;;;;;;5045104;28;20028;-72
2022/03/01 07:52:26;;;;;;;20.23;7.83;;;;;;;;;;5046505;28;20032;-72
2022/03/01 07:54:51;;;;;;;19.30;6.90;;;;;;;;;;5036336;28;20025;-72
2022/03/01 07:57:17;;;;;;;21.67;7.97;;;;;;;;;;5044140;28;20513;-72
2022/03/01 07:59:42;;;;;;;20.27;6.80;;;;;;;;;;5034445;28;20390;-72
2022/03/01 08:02:08;;;;;;;16.67;6.53;;;;;;;;;;5044153;28;20045;-72
2022/03/01 08:04:33;;;;;;;21.30;7.50;;;;;;;;;;5043000;28;20025;-71
2022/03/01 08:06:58;;;;;;;20.67;7.27;;;;;;;;;;5043525;28;20056;-71
2022/03/01 08:09:23;;;;;;;16.03;6.70;;;;;;;;;;5038484;28;20424;-71
2022/03/01 08:11:49;;;;;;;15.97;6.30;;;;;;;;;;5043310;28;20036;-71
2022/03/01 08:14:14;;;;;;;21.07;6.47;;;;;;;;;;5039399;28;20091;-71
2022/03/01 08:16:39;;;;;;;18.23;7.10;;;;;;;;;;5043969;28;20020;-72
2022/03/01 08:19:05;;;;;;;16.43;6.57;;;;;;;;;;5043525;28;20035;-72
2022/03/01 08:21:30;;;;;;;18.67;6.90;;;;;;;;;;5043843;28;20032;-72
2022/03/01 08:23:55;;;;;;;19.57;7.47;;;;;;;;;;5041393;28;20270;-72
2022/03/01 08:26:20;;;;;;;14.47;5.77;;;;;;;;;;5043769;28;20389;-71
2022/03/01 08:28:46;;;;;;;16.10;6.00;;;;;;;;;;5044739;28;20098;-71
2022/03/01 08:31:12;;;;;;;17.33;6.93;;;;;;;;;;5047002;28;20059;-70
2022/03/01 08:33:37;;;;;;;15.10;6.10;;;;;;;;;;5034038;28;20185;-71
2022/03/01 08:36:02;;;;;;;16.90;6.37;;;;;;;;;;5035630;28;20021;-71
2022/03/01 08:38:28;;;;;;;17.40;5.67;;;;;;;;;;5034867;28;20017;-71
2022/03/01 08:40:53;;;;;;;15.30;5.47;;;;;;;;;;5034324;28;20032;-71
2022/03/01 08:43:20;;;;;;;15.97;6.07;;;;;;;;;;5041349;28;20021;-71
2022/03/01 08:45:45;;;;;;;17.20;7.47;;;;;;;;;;5041071;28;20044;-71
2022/03/01 08:48:10;;;;;;;19.07;6.10;;;;;;;;;;5038206;28;20418;-71
2022/03/01 08:50:36;;;;;;;14.37;5.77;;;;;;;;;;5034613;28;20063;-71
2022/03/01 08:53:02;;;;;;;13.93;5.93;;;;;;;;;;5038930;28;20052;-71
2022/03/01 08:55:27;;;;;;;16.77;6.33;;;;;;;;;;5035011;28;20074;-71
2022/03/01 08:57:53;;;;;;;15.23;5.77;;;;;;;;;;5040726;28;20276;-70
2022/03/01 09:00:18;;;;;;;14.90;6.03;;;;;;;;;;5038096;28;20451;-71
2022/03/01 09:02:44;;;;;;;17.00;6.53;;;;;;;;;;5040518;28;20073;-71
2022/03/01 09:05:09;;;;;;;14.63;5.57;;;;;;;;;;5039959;28;20637;-71
2022/03/01 09:07:35;;;;;;;18.30;6.73;;;;;;;;;;5042183;28;20086;-71
2022/03/01 09:10:00;;;;;;;15.13;6.50;;;;;;;;;;5041179;28;20063;-71
2022/03/01 09:12:26;;;;;;;16.90;6.20;;;;;;;;;;5041754;28;20079;-71
2022/03/01 09:14:51;;;;;;;17.47;6.73;;;;;;;;;;5042424;28;20100;-71
2022/03/01 09:17:16;;;;;;;14.50;6.00;;;;;;;;;;5044251;28;20025;-72
2022/03/01 09:19:41;;;;;;;16.10;6.30;;;;;;;;;;5041987;28;20086;-72
2022/03/01 09:22:07;;;;;;;17.00;6.13;;;;;;;;;;5042471;28;20021;-73
2022/03/01 09:24:32;;;;;;;18.30;6.17;;;;;;;;;;5042855;28;20029;-72
2022/03/01 09:27:01;;;;;;;18.93;6.17;;;;;;;;;;5043481;28;20021;-72
2022/03/01 09:29:27;;;;;;;18.87;6.73;;;;;;;;;;5043244;28;20357;-73
2022/03/01 09:31:52;;;;;;;20.03;6.93;;;;;;;;;;5041885;28;20082;-72
2022/03/01 09:34:17;;;;;;;18.17;6.60;;;;;;;;;;5030697;28;20151;-72
2022/03/01 09:36:42;;;;;;;16.00;6.33;;;;;;;;;;5042675;28;20381;-72
2022/03/01 09:39:08;;;;;;;18.43;7.00;;;;;;;;;;5031993;28;20021;-72
2022/03/01 09:41:33;;;;;;;15.90;6.63;;;;;;;;;;5043689;28;20021;-72
2022/03/01 09:43:59;;;;;;;20.07;7.87;;;;;;;;;;5035045;28;20473;-72
2022/03/01 09:46:24;;;;;;;18.50;6.80;;;;;;;;;;5039973;28;20071;-72
2022/03/01 09:48:50;;;;;;;17.07;7.00;;;;;;;;;;5051421;28;20025;-71
2022/03/01 09:51:15;;;;;;;16.83;6.50;;;;;;;;;;5043346;28;20279;-72
2022/03/01 09:53:42;;;;;;;17.87;7.43;;;;;;;;;;5041365;28;20021;-72
2022/03/01 09:56:07;;;;;;;18.07;6.70;;;;;;;;;;5043980;28;20517;-72
2022/03/01 09:58:33;;;;;;;17.80;6.50;;;;;;;;;;5041193;28;20017;-72
2022/03/01 10:00:58;;;;;;;13.70;6.17;;;;;;;;;;5049022;28;20640;-73
2022/03/01 10:03:24;;;;;;;20.40;7.13;;;;;;;;;;5046422;28;20130;-74
2022/03/01 10:05:50;;;;;;;20.80;6.73;;;;;;;;;;5045151;28;20028;-74
2022/03/01 10:08:16;;;;;;;16.17;6.00;;;;;;;;;;5045390;28;20048;-74
2022/03/01 10:10:43;;;;;;;18.67;6.67;;;;;;;;;;5043362;28;20017;-74
2022/03/01 10:13:09;;;;;;;16.80;6.53;;;;;;;;;;5039958;28;20632;-74
2022/03/01 10:15:35;;;;;;;15.43;5.63;;;;;;;;;;5036285;28;20048;-74
2022/03/01 10:18:09;;;;;;;14.00;5.77;;;;;;;;;;5043527;28;20352;-74
2022/03/01 10:20:35;;;;;;;14.87;5.97;;;;;;;;;;5044394;28;20023;-74
2022/03/01 10:23:01;;;;;;;12.77;5.63;;;;;;;;;;5043846;28;20096;-74
2022/03/01 10:25:27;;;;;;;15.13;5.73;;;;;;;;;;5037801;28;20025;-74
2022/03/01 10:27:53;;;;;;;12.70;5.50;;;;;;;;;;5044860;28;20025;-74
2022/03/01 10:30:28;;;;;;;14.87;5.33;;;;;;;;;;5045336;28;20481;-73
2022/03/01 10:33:10;;;;;;;19.50;7.03;;;;;;;;;;5032324;28;20075;-73
2022/03/01 10:35:36;;;;;;;13.63;5.80;;;;;;;;;;5044078;28;20017;-73
2022/03/01 10:38:02;;;;;;;14.23;5.93;;;;;;;;;;5046394;28;20032;-73
2022/03/01 10:40:28;;;;;;;14.60;6.23;;;;;;;;;;5049817;28;20091;-73
2022/03/01 10:43:09;;;;;;;15.87;6.43;;;;;;;;;;5048527;28;20033;-73
2022/03/01 10:45:40;;;;;;;14.57;6.50;;;;;;;;;;5046170;28;20079;-73
2022/03/01 10:48:07;;;;;;;14.43;6.00;;;;;;;;;;5045899;28;20067;-73
2022/03/01 10:50:34;;;;;;;16.70;5.93;;;;;;;;;;5046478;28;20057;-73
2022/03/01 10:52:59;;;;;;;14.27;6.30;;;;;;;;;;5048943;28;20031;-72
2022/03/01 10:55:26;;;;;;;15.07;5.60;;;;;;;;;;5048450;28;20080;-73
2022/03/01 10:58:12;;;;;;;14.23;5.50;;;;;;;;;;5048152;28;20484;-73
2022/03/01 11:00:37;;;;;;;15.20;5.40;;;;;;;;;;5049080;28;20354;-73
2022/03/01 11:03:04;;;;;;;15.97;5.83;;;;;;;;;;5042942;28;20083;-73
2022/03/01 11:05:30;;;;;;;12.07;5.37;;;;;;;;;;5041110;28;20108;-73
2022/03/01 11:07:58;;;;;;;16.47;6.00;;;;;;;;;;5045844;28;20035;-73
2022/03/01 11:10:24;;;;;;;15.13;6.47;;;;;;;;;;5048710;28;20478;-71
2022/03/01 11:12:53;;;;;;;14.70;5.60;;;;;;;;;;5048588;28;20469;-72
2022/03/01 11:15:23;;;;;;;16.53;6.40;;;;;;;;;;5043638;28;20032;-74
2022/03/01 11:18:07;;;;;;;15.27;6.00;;;;;;;;;;5048150;28;20281;-75
2022/03/01 11:20:35;;;;;;;15.30;5.60;;;;;;;;;;5047470;28;20044;-75
2022/03/01 11:23:03;;;;;;;14.93;6.07;;;;;;;;;;5049811;28;20025;-74
2022/03/01 11:25:34;;;;;;;15.53;5.67;;;;;;;;;;5045908;28;20033;-74
2022/03/01 11:28:01;;;;;;;12.63;5.50;;;;;;;;;;5045001;28;20496;-74
2022/03/01 11:30:27;;;;;;;14.23;5.73;;;;;;;;;;5045876;28;20573;-74
2022/03/01 11:32:54;;;;;;;12.73;5.10;;;;;;;;;;5047279;28;20065;-74
2022/03/01 11:35:22;;;;;;;15.67;6.03;;;;;;;;;;5046099;28;20021;-74
2022/03/01 11:37:57;;;;;;;12.40;5.43;;;;;;;;;;5047711;28;20112;-74
2022/03/01 11:40:23;;;;;;;18.23;6.00;;;;;;;;;;5035278;28;20044;-75
2022/03/01 11:42:49;;;;;;;13.10;6.37;;;;;;;;;;5048549;28;20482;-74
2022/03/01 11:45:15;;;;;;;16.27;6.27;;;;;;;;;;5033590;28;20084;-74
2022/03/01 11:47:41;;;;;;;13.87;5.40;;;;;;;;;;5048256;28;20059;-74
2022/03/01 11:50:11;;;;;;;14.93;5.87;;;;;;;;;;5051677;28;20033;-75
2022/03/01 11:52:47;;;;;;;12.57;5.80;;;;;;;;;;5046469;28;20047;-74
2022/03/01 11:55:12;;;;;;;15.87;6.47;;;;;;;;;;5049034;28;20461;-74
2022/03/01 11:57:38;;;;;;;16.60;6.50;;;;;;;;;;5046888;28;20032;-75
2022/03/01 12:00:03;;;;;;;15.57;6.47;;;;;;;;;;5034951;28;20098;-74
2022/03/01 12:02:28;;;;;;;13.20;5.67;;;;;;;;;;5045346;28;20132;-74
2022/03/01 12:04:55;;;;;;;14.17;6.73;;;;;;;;;;5044543;28;20515;-74
2022/03/01 12:07:21;;;;;;;15.73;5.80;;;;;;;;;;5045192;28;20180;-74
2022/03/01 12:09:54;;;;;;;16.37;6.27;;;;;;;;;;5043702;28;20661;-74
2022/03/01 12:12:29;;;;;;;15.70;6.43;;;;;;;;;;5044601;28;20044;-75
2022/03/01 12:14:54;;;;;;;16.77;6.50;;;;;;;;;;5045948;28;20052;-75
2022/03/01 12:17:20;;;;;;;17.17;6.10;;;;;;;;;;5045848;28;20170;-76
2022/03/01 12:19:45;;;;;;;13.00;5.47;;;;;;;;;;5047012;28;20268;-75
2022/03/01 12:22:13;;;;;;;17.40;6.63;;;;;;;;;;5043983;28;20048;-76
2022/03/01 12:24:38;;;;;;;16.87;6.23;;;;;;;;;;5044069;28;20027;-76
2022/03/01 12:27:04;;;;;;;13.67;6.00;;;;;;;;;;5044568;28;20017;-76
2022/03/01 12:29:30;;;;;;;16.30;5.90;;;;;;;;;;5044026;28;20025;-77
2022/03/01 12:31:58;;;;;;;15.47;5.90;;;;;;;;;;5041241;28;20028;-77
2022/03/01 12:34:26;;;;;;;13.43;5.90;;;;;;;;;;5037768;28;20090;-77
2022/03/01 12:36:52;;;;;;;13.43;6.03;;;;;;;;;;5042957;28;20037;-76
2022/03/01 12:39:18;;;;;;;17.97;5.87;;;;;;;;;;5045361;28;20025;-75
2022/03/01 12:41:43;;;;;;;15.23;6.77;;;;;;;;;;5045463;28;20382;-75
2022/03/01 12:44:10;;;;;;;15.23;5.80;;;;;;;;;;5043441;28;20267;-76
2022/03/01 12:46:36;;;;;;;16.17;6.13;;;;;;;;;;5044595;28;20529;-75
2022/03/01 12:49:03;;;;;;;15.67;6.47;;;;;;;;;;5044314;28;20115;-75
2022/03/01 12:51:29;;;;;;;16.87;6.27;;;;;;;;;;5045670;28;20525;-76
2022/03/01 12:53:56;;;;;;;17.33;6.53;;;;;;;;;;5034235;28;20104;-75
2022/03/01 12:56:24;;;;;;;16.10;6.20;;;;;;;;;;5045461;28;20210;-75
2022/03/01 12:58:51;;;;;;;15.23;6.90;;;;;;;;;;5045076;28;20020;-75
2022/03/01 13:01:18;;;;;;;15.73;6.43;;;;;;;;;;5044328;28;20033;-75
2022/03/01 13:03:47;;;;;;;12.53;5.80;;;;;;;;;;5038403;28;20569;-74
2022/03/01 13:06:14;;;;;;;14.60;6.00;;;;;;;;;;5045474;28;20478;-74
2022/03/01 13:08:47;;;;;;;14.03;6.20;;;;;;;;;;5041373;28;20223;-74
2022/03/01 13:11:13;;;;;;;16.87;6.20;;;;;;;;;;5044745;28;20155;-75
2022/03/01 13:13:51;;;;;;;16.17;6.20;;;;;;;;;;5038051;28;20318;-74
2022/03/01 13:16:17;;;;;;;13.80;5.73;;;;;;;;;;5044333;28;20441;-74
2022/03/01 13:18:42;;;;;;;13.93;5.77;;;;;;;;;;5041395;28;20057;-74
2022/03/01 13:21:07;;;;;;;17.20;5.83;;;;;;;;;;5045605;28;20059;-73
2022/03/01 13:23:33;;;;;;;19.20;7.07;;;;;;;;;;5045608;28;20029;-73
2022/03/01 13:26:01;;;;;;;15.33;6.07;;;;;;;;;;5046413;28;20508;-74
2022/03/01 13:28:30;;;;;;;14.17;5.80;;;;;;;;;;5039450;28;20072;-74
2022/03/01 13:30:55;;;;;;;14.40;6.13;;;;;;;;;;5045942;28;20131;-74
2022/03/01 13:33:25;;;;;;;16.67;6.37;;;;;;;;;;5043601;28;20097;-74
2022/03/01 13:35:50;;;;;;;17.73;6.47;;;;;;;;;;5045045;28;20104;-74
2022/03/01 13:38:18;;;;;;;17.27;7.27;;;;;;;;;;5043197;28;20112;-74
2022/03/01 13:40:44;;;;;;;17.93;6.90;;;;;;;;;;5045582;28;20577;-74
2022/03/01 13:43:10;;;;;;;15.57;5.75;;;;;;;;;;5045051;28;20056;-74
2022/03/01 13:45:37;;;;;;;15.93;6.60;;;;;;;;;;5043750;28;20029;-74
2022/03/01 13:48:09;;;;;;;15.50;6.60;;;;;;;;;;5059450;28;20052;-75
2022/03/01 13:50:35;;;;;;;17.17;6.83;;;;;;;;;;5043860;28;20028;-75
2022/03/01 13:53:07;;;;;;;16.67;6.77;;;;;;;;;;5043209;28;20512;-75
2022/03/01 13:55:35;;;;;;;14.40;6.03;;;;;;;;;;5038614;28;20102;-74
2022/03/01 13:58:00;;;;;;;16.00;5.77;;;;;;;;;;5048943;28;20032;-75
2022/03/01 14:00:35;;;;;;;15.50;6.17;;;;;;;;;;5046318;28;20017;-74
2022/03/01 14:03:10;;;;;;;14.37;6.33;;;;;;;;;;5027750;28;20140;-74
2022/03/01 14:05:39;;;;;;;13.77;6.30;;;;;;;;;;5046367;28;20036;-74
2022/03/01 14:08:12;;;;;;;14.70;6.00;;;;;;;;;;5044138;28;20264;-74
2022/03/01 14:10:39;;;;;;;15.10;6.40;;;;;;;;;;5043263;28;20051;-75
2022/03/01 14:13:07;;;;;;;15.23;6.40;;;;;;;;;;5046140;28;20108;-74
2022/03/01 14:15:34;;;;;;;14.67;6.10;;;;;;;;;;5047845;28;20454;-74
2022/03/01 14:17:59;;;;;;;16.27;6.53;;;;;;;;;;5047247;28;20242;-75
2022/03/01 14:20:24;;;;;;;14.90;6.23;;;;;;;;;;5046266;28;20116;-75
2022/03/01 14:22:50;;;;;;;14.50;6.00;;;;;;;;;;5046600;28;20088;-74
2022/03/01 14:25:15;;;;;;;15.67;6.20;;;;;;;;;;5044325;28;20047;-74
2022/03/01 14:27:40;;;;;;;15.60;6.50;;;;;;;;;;5048399;28;20021;-75